createdAt,value
2017-01-22T00:00:55.150Z,99.99
2017-01-22T00:01:55.126Z,99.99
2017-01-22T00:02:55.119Z,99.99
2017-01-22T00:03:55.146Z,99.99
2017-01-22T00:04:55.131Z,99.99
2017-01-22T00:05:55.125Z,99.99
2017-01-22T00:06:55.122Z,99.99
2017-01-22T00:07:55.127Z,99.99
2017-01-22T00:08:55.142Z,99.99
2017-01-22T00:09:55.126Z,99.99
2017-01-22T00:10:55.121Z,99.99
2017-01-22T00:11:55.125Z,99.99
2017-01-22T00:12:55.132Z,99.99
2017-01-22T00:13:55.129Z,99.99
2017-01-22T00:14:55.130Z,99.99
2017-01-22T00:15:55.134Z,99.99
2017-01-22T00:16:55.155Z,99.99
2017-01-22T00:17:55.148Z,99.99
2017-01-22T00:18:55.133Z,99.99
2017-01-22T00:19:55.150Z,99.99
2017-01-22T00:20:55.178Z,99.99
2017-01-22T00:21:55.142Z,99.99
2017-01-22T00:22:55.135Z,99.99
2017-01-22T00:23:55.153Z,99.99
2017-01-22T00:24:55.139Z,99.99
2017-01-22T00:25:55.139Z,99.99
2017-01-22T00:26:55.134Z,99.99
2017-01-22T00:27:55.144Z,99.99
2017-01-22T00:28:55.183Z,99.99
2017-01-22T00:29:55.148Z,99.99
2017-01-22T00:30:55.143Z,99.99
2017-01-22T00:31:55.143Z,99.99
2017-01-22T00:32:55.154Z,99.99
2017-01-22T00:33:55.132Z,99.99
2017-01-22T00:34:55.154Z,99.99
2017-01-22T00:35:55.135Z,99.99
2017-01-22T00:36:55.144Z,99.99
2017-01-22T00:37:55.139Z,99.99
2017-01-22T00:38:55.166Z,99.99
2017-01-22T00:39:55.152Z,99.99
2017-01-22T00:40:55.153Z,99.99
2017-01-22T00:41:55.159Z,99.99
2017-01-22T00:42:55.157Z,99.99
2017-01-22T00:43:55.158Z,99.99
2017-01-22T00:44:55.148Z,99.99
2017-01-22T00:45:55.178Z,99.99
2017-01-22T00:46:55.140Z,99.99
2017-01-22T00:47:55.146Z,99.99
2017-01-22T00:48:55.148Z,99.99
2017-01-22T00:49:55.148Z,99.99
2017-01-22T00:50:55.167Z,99.99
2017-01-22T00:51:55.164Z,99.99
2017-01-22T00:52:55.150Z,99.99
2017-01-22T00:53:55.152Z,99.99
2017-01-22T00:54:55.167Z,99.99
2017-01-22T00:55:55.149Z,99.99
2017-01-22T00:56:55.156Z,99.99
2017-01-22T00:57:55.149Z,99.99
2017-01-22T00:58:55.153Z,99.99
2017-01-22T00:59:55.161Z,99.99
2017-01-22T01:00:55.145Z,99.99
2017-01-22T01:01:55.160Z,99.99
2017-01-22T01:02:55.188Z,99.99
2017-01-22T01:03:55.157Z,99.99
2017-01-22T01:04:55.154Z,99.99
2017-01-22T01:05:55.157Z,99.99
2017-01-22T01:06:55.147Z,99.99
2017-01-22T01:07:55.162Z,99.99
2017-01-22T01:08:55.159Z,99.99
2017-01-22T01:09:55.159Z,99.99
2017-01-22T01:10:55.187Z,99.99
2017-01-22T01:11:55.170Z,99.99
2017-01-22T01:12:55.171Z,99.99
2017-01-22T01:13:55.179Z,99.99
2017-01-22T01:14:55.186Z,99.99
2017-01-22T01:15:55.164Z,99.99
2017-01-22T01:16:55.186Z,99.99
2017-01-22T01:17:55.170Z,99.99
2017-01-22T01:18:55.164Z,99.99
2017-01-22T01:19:55.172Z,99.99
2017-01-22T01:20:55.165Z,99.99
2017-01-22T01:21:55.165Z,99.99
2017-01-22T01:22:55.178Z,99.99
2017-01-22T01:23:55.158Z,99.99
2017-01-22T01:24:55.162Z,99.99
2017-01-22T01:25:55.172Z,99.99
2017-01-22T01:26:55.195Z,99.99
2017-01-22T01:27:55.169Z,99.99
2017-01-22T01:28:55.177Z,99.99
2017-01-22T01:29:55.185Z,99.99
2017-01-22T01:30:55.172Z,99.99
2017-01-22T01:31:55.172Z,99.99
2017-01-22T01:32:55.175Z,99.99
2017-01-22T01:33:55.162Z,99.99
2017-01-22T01:34:55.176Z,99.99
2017-01-22T01:35:55.188Z,99.99
2017-01-22T01:36:55.172Z,99.99
2017-01-22T01:37:55.176Z,99.99
2017-01-22T01:38:55.181Z,99.99
2017-01-22T01:39:55.194Z,99.99
2017-01-22T01:40:55.184Z,99.99
2017-01-22T01:41:55.185Z,99.99
2017-01-22T01:42:55.178Z,99.99
2017-01-22T01:43:55.188Z,99.99
2017-01-22T01:44:55.179Z,99.99
2017-01-22T01:45:55.181Z,99.99
2017-01-22T01:46:55.183Z,99.99
2017-01-22T01:47:55.185Z,99.99
2017-01-22T01:48:55.179Z,99.99
2017-01-22T01:49:55.196Z,99.99
2017-01-22T01:50:55.191Z,99.99
2017-01-22T01:51:55.185Z,99.99
2017-01-22T01:52:55.175Z,99.99
2017-01-22T01:53:55.188Z,99.99
2017-01-22T01:54:55.216Z,99.99
2017-01-22T01:55:55.194Z,99.99
2017-01-22T01:56:55.215Z,99.99
2017-01-22T01:57:55.185Z,99.99
2017-01-22T01:58:55.184Z,99.99
2017-01-22T01:59:55.193Z,99.99
2017-01-22T02:00:55.206Z,99.99
2017-01-22T02:01:55.187Z,99.99
2017-01-22T02:02:55.231Z,99.99
2017-01-22T02:03:55.191Z,99.99
2017-01-22T02:04:55.185Z,99.99
2017-01-22T02:05:55.202Z,99.99
2017-01-22T02:06:55.184Z,99.99
2017-01-22T02:07:55.192Z,99.99
2017-01-22T02:08:55.190Z,99.99
2017-01-22T02:09:55.198Z,99.99
2017-01-22T02:10:55.216Z,99.99
2017-01-22T02:11:55.189Z,99.99
2017-01-22T02:12:55.193Z,99.99
2017-01-22T02:13:55.220Z,99.99
2017-01-22T02:14:55.189Z,99.99
2017-01-22T02:15:55.205Z,99.99
2017-01-22T02:16:55.202Z,99.99
2017-01-22T02:17:55.194Z,99.99
2017-01-22T02:18:55.196Z,99.99
2017-01-22T02:19:55.207Z,99.99
2017-01-22T02:20:55.192Z,99.99
2017-01-22T02:21:55.199Z,99.99
2017-01-22T02:22:55.202Z,99.99
2017-01-22T02:23:55.189Z,99.99
2017-01-22T02:24:55.204Z,99.99
2017-01-22T02:25:55.219Z,99.99
2017-01-22T02:26:55.208Z,99.99
2017-01-22T02:27:55.215Z,99.99
2017-01-22T02:28:55.240Z,99.99
2017-01-22T02:29:55.203Z,99.99
2017-01-22T02:30:55.196Z,99.99
2017-01-22T02:31:55.200Z,99.99
2017-01-22T02:32:55.214Z,99.99
2017-01-22T02:33:55.206Z,99.99
2017-01-22T02:34:55.214Z,99.99
2017-01-22T02:35:55.220Z,99.99
2017-01-22T02:36:55.211Z,99.99
2017-01-22T02:37:55.200Z,99.99
2017-01-22T02:38:55.206Z,99.99
2017-01-22T02:39:55.201Z,99.99
2017-01-22T02:40:55.224Z,99.99
2017-01-22T02:41:55.213Z,99.99
2017-01-22T02:42:55.220Z,99.99
2017-01-22T02:43:55.213Z,99.99
2017-01-22T02:44:55.204Z,99.99
2017-01-22T02:45:55.216Z,99.99
2017-01-22T02:46:55.205Z,99.99
2017-01-22T02:47:55.237Z,99.99
2017-01-22T02:48:55.225Z,99.99
2017-01-22T02:49:55.222Z,99.99
2017-01-22T02:50:55.215Z,99.99
2017-01-22T02:51:55.229Z,99.99
2017-01-22T02:52:55.219Z,99.99
2017-01-22T02:53:55.228Z,99.99
2017-01-22T02:54:55.222Z,99.99
2017-01-22T02:55:55.226Z,99.99
2017-01-22T02:56:55.216Z,99.99
2017-01-22T02:57:55.228Z,99.99
2017-01-22T02:58:55.225Z,99.99
2017-01-22T02:59:55.230Z,99.99
2017-01-22T03:00:55.231Z,99.99
2017-01-22T03:01:55.229Z,99.99
2017-01-22T03:02:55.220Z,99.99
2017-01-22T03:03:55.232Z,99.99
2017-01-22T03:04:55.246Z,99.99
2017-01-22T03:05:55.227Z,99.99
2017-01-22T03:06:55.223Z,99.99
2017-01-22T03:07:55.221Z,99.99
2017-01-22T03:08:55.213Z,99.99
2017-01-22T03:09:55.220Z,99.99
2017-01-22T03:10:55.221Z,99.99
2017-01-22T03:11:55.212Z,99.99
2017-01-22T03:12:55.227Z,99.99
2017-01-22T03:13:55.228Z,99.99
2017-01-22T03:14:55.237Z,99.99
2017-01-22T03:15:55.230Z,99.99
2017-01-22T03:16:55.235Z,99.99
2017-01-22T03:17:55.228Z,99.99
2017-01-22T03:18:55.230Z,99.99
2017-01-22T03:19:55.224Z,99.99
2017-01-22T03:20:55.239Z,99.99
2017-01-22T03:21:55.252Z,99.99
2017-01-22T03:22:55.227Z,99.99
2017-01-22T03:23:55.250Z,99.99
2017-01-22T03:24:55.238Z,99.99
2017-01-22T03:25:55.232Z,99.99
2017-01-22T03:26:55.233Z,99.99
2017-01-22T03:27:55.230Z,99.99
2017-01-22T03:28:55.242Z,99.99
2017-01-22T03:29:55.245Z,99.99
2017-01-22T03:30:55.237Z,99.99
2017-01-22T03:31:55.242Z,99.99
2017-01-22T03:32:55.255Z,99.99
2017-01-22T03:33:55.240Z,99.99
2017-01-22T03:34:55.245Z,99.99
2017-01-22T03:35:55.232Z,99.99
2017-01-22T03:36:55.244Z,99.99
2017-01-22T03:37:55.235Z,99.99
2017-01-22T03:38:55.241Z,99.99
2017-01-22T03:39:55.234Z,99.99
2017-01-22T03:40:55.242Z,99.99
2017-01-22T03:41:55.273Z,99.99
2017-01-22T03:42:55.261Z,99.99
2017-01-22T03:43:55.250Z,99.99
2017-01-22T03:44:55.235Z,99.99
2017-01-22T03:45:55.249Z,99.99
2017-01-22T03:46:55.240Z,99.99
2017-01-22T03:47:55.242Z,99.99
2017-01-22T03:48:55.258Z,99.99
2017-01-22T03:49:55.252Z,99.99
2017-01-22T03:50:55.238Z,99.99
2017-01-22T03:51:55.244Z,99.99
2017-01-22T03:52:55.287Z,99.99
2017-01-22T03:53:55.255Z,99.99
2017-01-22T03:54:55.262Z,99.99
2017-01-22T03:55:55.255Z,99.99
2017-01-22T03:56:55.251Z,99.99
2017-01-22T03:57:55.279Z,99.99
2017-01-22T03:58:55.246Z,99.99
2017-01-22T03:59:55.249Z,99.99
2017-01-22T04:00:55.260Z,99.99
2017-01-22T04:01:55.261Z,99.99
2017-01-22T04:02:55.266Z,99.99
2017-01-22T04:03:55.252Z,99.99
2017-01-22T04:04:55.258Z,99.99
2017-01-22T04:05:55.270Z,99.99
2017-01-22T04:06:55.253Z,99.99
2017-01-22T04:07:55.256Z,99.99
2017-01-22T04:08:55.248Z,99.99
2017-01-22T04:09:55.264Z,99.99
2017-01-22T04:10:55.255Z,99.99
2017-01-22T04:11:55.265Z,99.99
2017-01-22T04:12:55.265Z,99.99
2017-01-22T04:13:55.265Z,99.99
2017-01-22T04:14:55.274Z,99.99
2017-01-22T04:15:55.273Z,99.99
2017-01-22T04:16:55.268Z,99.99
2017-01-22T04:17:55.276Z,99.99
2017-01-22T04:18:55.274Z,99.99
2017-01-22T04:19:55.263Z,99.99
2017-01-22T04:20:55.270Z,99.99
2017-01-22T04:21:55.268Z,99.99
2017-01-22T04:22:55.262Z,99.99
2017-01-22T04:23:55.263Z,99.99
2017-01-22T04:24:55.283Z,99.99
2017-01-22T04:25:55.285Z,99.99
2017-01-22T04:26:55.266Z,99.99
2017-01-22T04:27:55.260Z,99.99
2017-01-22T04:28:55.294Z,99.99
2017-01-22T04:29:55.271Z,99.99
2017-01-22T04:30:55.284Z,99.99
2017-01-22T04:31:55.271Z,99.99
2017-01-22T04:32:55.278Z,99.99
2017-01-22T04:33:55.267Z,99.99
2017-01-22T04:34:55.271Z,99.99
2017-01-22T04:35:55.273Z,99.99
2017-01-22T04:36:55.278Z,99.99
2017-01-22T04:37:55.265Z,99.99
2017-01-22T04:38:55.275Z,99.99
2017-01-22T04:39:55.275Z,99.99
2017-01-22T04:40:55.287Z,99.99
2017-01-22T04:41:55.270Z,99.99
2017-01-22T04:42:55.265Z,99.99
2017-01-22T04:43:55.274Z,99.99
2017-01-22T04:44:55.284Z,99.99
2017-01-22T04:45:55.295Z,99.99
2017-01-22T04:46:55.277Z,99.99
2017-01-22T04:47:55.277Z,99.99
2017-01-22T04:48:55.280Z,99.99
2017-01-22T04:49:55.286Z,99.99
2017-01-22T04:50:55.277Z,99.99
2017-01-22T04:51:55.278Z,99.99
2017-01-22T04:52:55.285Z,99.99
2017-01-22T04:53:55.288Z,99.99
2017-01-22T04:54:55.306Z,99.99
2017-01-22T04:55:55.283Z,99.99
2017-01-22T04:56:55.291Z,99.99
2017-01-22T04:57:55.283Z,99.99
2017-01-22T04:58:55.288Z,99.99
2017-01-22T04:59:55.276Z,99.99
2017-01-22T05:00:55.291Z,99.99
2017-01-22T05:01:55.292Z,99.99
2017-01-22T05:02:55.290Z,99.99
2017-01-22T05:03:55.300Z,99.99
2017-01-22T05:04:55.282Z,99.99
2017-01-22T05:05:55.300Z,99.99
2017-01-22T05:06:55.283Z,99.99
2017-01-22T05:07:55.288Z,99.99
2017-01-22T05:08:55.292Z,99.99
2017-01-22T05:09:55.288Z,99.99
2017-01-22T05:10:55.296Z,99.99
2017-01-22T05:11:55.325Z,99.99
2017-01-22T05:12:55.319Z,99.99
2017-01-22T05:13:55.313Z,99.99
2017-01-22T05:14:55.297Z,99.99
2017-01-22T05:15:55.291Z,99.99
2017-01-22T05:16:55.294Z,99.99
2017-01-22T05:17:55.325Z,99.99
2017-01-22T05:18:55.314Z,99.99
2017-01-22T05:19:55.287Z,99.99
2017-01-22T05:20:55.310Z,99.99
2017-01-22T05:21:55.290Z,99.99
2017-01-22T05:22:55.298Z,99.99
2017-01-22T05:23:55.286Z,99.99
2017-01-22T05:24:55.303Z,99.99
2017-01-22T05:25:55.300Z,99.99
2017-01-22T05:26:55.303Z,99.99
2017-01-22T05:27:55.312Z,99.99
2017-01-22T05:28:55.289Z,99.99
2017-01-22T05:29:55.286Z,99.99
2017-01-22T05:30:55.308Z,99.99
2017-01-22T05:31:55.302Z,99.99
2017-01-22T05:32:55.300Z,99.99
2017-01-22T05:33:55.310Z,99.99
2017-01-22T05:34:55.307Z,99.99
2017-01-22T05:35:55.298Z,99.99
2017-01-22T05:36:55.311Z,99.99
2017-01-22T05:37:55.303Z,99.99
2017-01-22T05:38:55.308Z,99.99
2017-01-22T05:39:55.309Z,99.99
2017-01-22T05:40:55.308Z,99.99
2017-01-22T05:41:55.308Z,99.99
2017-01-22T05:42:55.310Z,99.99
2017-01-22T05:43:55.300Z,99.99
2017-01-22T05:44:55.314Z,99.99
2017-01-22T05:45:55.306Z,99.99
2017-01-22T05:46:55.339Z,99.99
2017-01-22T05:47:55.307Z,99.99
2017-01-22T05:48:55.311Z,99.99
2017-01-22T05:49:55.317Z,99.99
2017-01-22T05:50:55.325Z,99.99
2017-01-22T05:51:55.339Z,99.99
2017-01-22T05:52:55.308Z,99.99
2017-01-22T05:53:55.316Z,99.99
2017-01-22T05:54:55.306Z,99.99
2017-01-22T05:55:55.312Z,99.99
2017-01-22T05:56:55.306Z,99.99
2017-01-22T05:57:55.312Z,99.99
2017-01-22T05:58:55.310Z,99.99
2017-01-22T05:59:55.327Z,99.99
2017-01-22T06:00:55.301Z,99.99
2017-01-22T06:01:55.320Z,99.99
2017-01-22T06:02:55.321Z,99.99
2017-01-22T06:03:55.351Z,99.99
2017-01-22T06:04:55.318Z,99.99
2017-01-22T06:05:55.317Z,99.99
2017-01-22T06:06:55.322Z,99.99
2017-01-22T06:07:55.315Z,99.99
2017-01-22T06:08:55.328Z,99.99
2017-01-22T06:09:55.328Z,99.99
2017-01-22T06:10:55.321Z,99.99
2017-01-22T06:11:55.322Z,99.99
2017-01-22T06:12:55.323Z,99.99
2017-01-22T06:13:55.325Z,99.99
2017-01-22T06:14:55.329Z,99.99
2017-01-22T06:15:55.319Z,99.99
2017-01-22T06:16:55.328Z,99.99
2017-01-22T06:17:55.316Z,99.99
2017-01-22T06:18:55.335Z,99.99
2017-01-22T06:19:55.334Z,99.99
2017-01-22T06:20:55.320Z,99.99
2017-01-22T06:21:55.323Z,99.99
2017-01-22T06:22:55.334Z,99.99
2017-01-22T06:23:55.323Z,99.99
2017-01-22T06:24:55.333Z,99.99
2017-01-22T06:25:55.325Z,99.99
2017-01-22T06:26:55.327Z,99.99
2017-01-22T06:27:55.337Z,99.99
2017-01-22T06:28:55.319Z,99.99
2017-01-22T06:29:55.337Z,99.99
2017-01-22T06:30:55.326Z,99.99
2017-01-22T06:31:55.324Z,99.99
2017-01-22T06:32:55.339Z,99.99
2017-01-22T06:33:55.326Z,99.99
2017-01-22T06:34:55.328Z,99.99
2017-01-22T06:35:55.330Z,99.99
2017-01-22T06:36:55.333Z,99.99
2017-01-22T06:37:55.331Z,99.99
2017-01-22T06:38:55.345Z,99.99
2017-01-22T06:39:55.346Z,99.99
2017-01-22T06:40:55.347Z,99.99
2017-01-22T06:41:55.339Z,99.99
2017-01-22T06:42:55.335Z,99.99
2017-01-22T06:43:55.346Z,99.99
2017-01-22T06:44:55.335Z,99.99
2017-01-22T06:45:55.351Z,99.99
2017-01-22T06:46:55.347Z,99.99
2017-01-22T06:47:55.340Z,99.99
2017-01-22T06:48:55.338Z,99.99
2017-01-22T06:49:55.338Z,99.99
2017-01-22T06:50:55.331Z,99.99
2017-01-22T06:51:55.347Z,99.99
2017-01-22T06:52:55.341Z,99.99
2017-01-22T06:53:55.349Z,99.99
2017-01-22T06:54:55.354Z,99.99
2017-01-22T06:55:55.347Z,99.99
2017-01-22T06:56:55.339Z,99.99
2017-01-22T06:57:55.333Z,99.99
2017-01-22T06:58:55.347Z,99.99
2017-01-22T06:59:55.342Z,99.99
2017-01-22T07:00:55.352Z,99.99
2017-01-22T07:01:55.347Z,99.99
2017-01-22T07:02:55.350Z,99.99
2017-01-22T07:03:55.369Z,99.99
2017-01-22T07:04:55.350Z,99.99
2017-01-22T07:05:55.347Z,99.99
2017-01-22T07:06:55.364Z,99.99
2017-01-22T07:07:55.344Z,99.99
2017-01-22T07:08:55.347Z,99.99
2017-01-22T07:09:55.353Z,99.99
2017-01-22T07:10:55.349Z,99.99
2017-01-22T07:11:55.373Z,99.99
2017-01-22T07:12:55.349Z,99.99
2017-01-22T07:13:55.337Z,99.99
2017-01-22T07:14:55.346Z,99.99
2017-01-22T07:15:55.355Z,99.99
2017-01-22T07:16:55.382Z,99.99
2017-01-22T07:17:55.350Z,99.99
2017-01-22T07:18:55.380Z,99.99
2017-01-22T07:19:55.365Z,99.99
2017-01-22T07:20:55.348Z,99.99
2017-01-22T07:21:55.336Z,99.99
2017-01-22T07:22:55.349Z,99.99
2017-01-22T07:23:55.356Z,99.99
2017-01-22T07:24:55.357Z,99.99
2017-01-22T07:25:55.368Z,99.99
2017-01-22T07:26:55.356Z,99.99
2017-01-22T07:27:55.347Z,99.99
2017-01-22T07:28:55.365Z,99.99
2017-01-22T07:29:55.362Z,99.99
2017-01-22T07:30:55.354Z,99.99
2017-01-22T07:31:55.407Z,99.99
2017-01-22T07:32:55.351Z,99.99
2017-01-22T07:33:55.357Z,99.99
2017-01-22T07:34:55.378Z,99.99
2017-01-22T07:35:55.369Z,99.99
2017-01-22T07:36:55.365Z,99.99
2017-01-22T07:37:55.365Z,99.99
2017-01-22T07:38:55.349Z,99.99
2017-01-22T07:39:55.369Z,99.99
2017-01-22T07:40:55.362Z,99.99
2017-01-22T07:41:55.363Z,99.99
2017-01-22T07:42:55.369Z,99.99
2017-01-22T07:43:55.389Z,99.99
2017-01-22T07:44:55.362Z,99.99
2017-01-22T07:45:55.361Z,99.99
2017-01-22T07:46:55.400Z,99.99
2017-01-22T07:47:55.374Z,99.99
2017-01-22T07:48:55.362Z,99.99
2017-01-22T07:49:55.369Z,99.99
2017-01-22T07:50:55.380Z,99.99
2017-01-22T07:51:55.367Z,99.99
2017-01-22T07:52:55.367Z,99.99
2017-01-22T07:53:55.393Z,99.99
2017-01-22T07:54:55.375Z,99.99
2017-01-22T07:55:55.376Z,99.99
2017-01-22T07:56:55.386Z,99.99
2017-01-22T07:57:55.375Z,99.99
2017-01-22T07:58:55.369Z,99.99
2017-01-22T07:59:55.395Z,99.99
2017-01-22T08:00:55.379Z,99.99
2017-01-22T08:01:55.385Z,99.99
2017-01-22T08:02:55.385Z,99.99
2017-01-22T08:03:55.390Z,99.99
2017-01-22T08:04:55.372Z,99.99
2017-01-22T08:05:55.383Z,99.99
2017-01-22T08:06:55.386Z,99.99
2017-01-22T08:07:55.375Z,99.99
2017-01-22T08:08:55.388Z,99.99
2017-01-22T08:09:55.390Z,99.99
2017-01-22T08:10:55.408Z,99.99
2017-01-22T08:11:55.426Z,99.99
2017-01-22T08:12:55.388Z,99.99
2017-01-22T08:13:55.379Z,99.99
2017-01-22T08:14:55.384Z,99.99
2017-01-22T08:15:55.386Z,99.99
2017-01-22T08:16:55.379Z,99.99
2017-01-22T08:17:55.398Z,99.99
2017-01-22T08:18:55.378Z,99.99
2017-01-22T08:19:55.388Z,99.99
2017-01-22T08:20:55.374Z,99.99
2017-01-22T08:21:55.389Z,99.99
2017-01-22T08:22:55.466Z,99.99
2017-01-22T08:23:55.384Z,99.99
2017-01-22T08:24:55.433Z,99.99
2017-01-22T08:25:55.389Z,99.99
2017-01-22T08:26:55.389Z,99.99
2017-01-22T08:27:55.373Z,99.99
2017-01-22T08:28:55.385Z,99.99
2017-01-22T08:29:55.379Z,99.99
2017-01-22T08:30:55.386Z,99.99
2017-01-22T08:31:55.385Z,99.99
2017-01-22T08:32:55.392Z,99.99
2017-01-22T08:33:55.386Z,99.99
2017-01-22T08:34:55.412Z,99.99
2017-01-22T08:35:55.391Z,99.99
2017-01-22T08:36:55.383Z,99.99
2017-01-22T08:37:55.386Z,99.99
2017-01-22T08:38:55.427Z,99.99
2017-01-22T08:40:01.745Z,99.99
2017-01-22T08:40:55.398Z,99.99
2017-01-22T08:41:55.384Z,99.99
2017-01-22T08:42:55.405Z,99.99
2017-01-22T08:43:55.400Z,99.99
2017-01-22T08:44:55.439Z,99.99
2017-01-22T08:45:55.407Z,99.99
2017-01-22T08:46:55.397Z,99.99
2017-01-22T08:47:55.403Z,99.99
2017-01-22T08:48:57.311Z,99.99
2017-01-22T08:49:55.402Z,99.99
2017-01-22T08:50:55.407Z,99.99
2017-01-22T08:51:55.404Z,99.99
2017-01-22T08:52:55.400Z,99.99
2017-01-22T08:53:55.421Z,99.99
2017-01-22T08:54:55.395Z,99.99
2017-01-22T08:55:55.397Z,99.99
2017-01-22T08:56:55.402Z,99.99
2017-01-22T08:57:55.406Z,99.99
2017-01-22T08:58:55.405Z,99.99
2017-01-22T08:59:55.405Z,99.99
2017-01-22T09:00:55.401Z,99.99
2017-01-22T09:01:55.435Z,99.99
2017-01-22T09:02:55.420Z,99.99
2017-01-22T09:03:55.421Z,99.99
2017-01-22T09:04:55.403Z,99.99
2017-01-22T09:05:55.432Z,99.99
2017-01-22T09:06:55.407Z,99.99
2017-01-22T09:07:55.419Z,99.99
2017-01-22T09:08:55.568Z,99.99
2017-01-22T09:09:55.413Z,99.99
2017-01-22T09:10:55.429Z,99.99
2017-01-22T09:11:55.452Z,99.99
2017-01-22T09:12:55.419Z,99.99
2017-01-22T09:13:55.411Z,99.99
2017-01-22T09:14:55.420Z,99.99
2017-01-22T09:15:55.415Z,99.99
2017-01-22T09:16:55.414Z,99.99
2017-01-22T09:17:55.412Z,99.99
2017-01-22T09:18:55.436Z,99.99
2017-01-22T09:19:55.451Z,99.99
2017-01-22T09:20:55.423Z,99.99
2017-01-22T09:21:55.419Z,99.99
2017-01-22T09:22:55.434Z,99.99
2017-01-22T09:23:55.432Z,99.99
2017-01-22T09:24:55.423Z,99.99
2017-01-22T09:25:55.462Z,99.99
2017-01-22T09:26:55.441Z,99.99
2017-01-22T09:27:55.422Z,99.99
2017-01-22T09:28:55.425Z,99.99
2017-01-22T09:29:55.765Z,99.99
2017-01-22T09:30:55.420Z,99.99
2017-01-22T09:31:55.848Z,99.99
2017-01-22T09:32:55.415Z,99.99
2017-01-22T09:33:55.433Z,99.99
2017-01-22T09:34:55.450Z,99.99
2017-01-22T09:35:55.800Z,99.99
2017-01-22T09:36:55.429Z,99.99
2017-01-22T09:37:55.418Z,99.99
2017-01-22T09:38:55.471Z,99.99
2017-01-22T09:39:55.519Z,99.99
2017-01-22T09:40:55.443Z,99.99
2017-01-22T09:41:55.430Z,99.99
2017-01-22T09:42:55.428Z,99.99
2017-01-22T09:43:55.440Z,99.99
2017-01-22T09:44:55.466Z,99.99
2017-01-22T09:45:55.427Z,99.99
2017-01-22T09:46:55.433Z,99.99
2017-01-22T09:47:55.443Z,99.99
2017-01-22T09:48:55.446Z,99.99
2017-01-22T09:49:55.433Z,99.99
2017-01-22T09:50:55.456Z,99.99
2017-01-22T09:51:55.450Z,99.99
2017-01-22T09:52:55.452Z,99.99
2017-01-22T09:53:55.446Z,99.99
2017-01-22T09:54:55.455Z,99.99
2017-01-22T09:55:55.443Z,99.99
2017-01-22T09:56:55.436Z,99.99
2017-01-22T09:57:55.463Z,99.99
2017-01-22T09:58:55.447Z,99.99
2017-01-22T09:59:55.444Z,99.99
2017-01-22T10:00:55.445Z,99.99
2017-01-22T10:01:55.448Z,99.99
2017-01-22T10:02:55.450Z,99.99
2017-01-22T10:03:55.437Z,99.99
2017-01-22T10:04:55.452Z,99.99
2017-01-22T10:05:55.602Z,99.99
2017-01-22T10:06:55.450Z,99.99
2017-01-22T10:07:55.457Z,99.99
2017-01-22T10:08:55.459Z,99.99
2017-01-22T10:09:55.465Z,99.99
2017-01-22T10:10:55.477Z,99.99
2017-01-22T10:11:55.449Z,99.99
2017-01-22T10:12:55.444Z,99.99
2017-01-22T10:13:55.451Z,99.99
2017-01-22T10:14:55.459Z,99.99
2017-01-22T10:15:55.448Z,99.99
2017-01-22T10:16:55.457Z,99.99
2017-01-22T10:17:55.463Z,99.99
2017-01-22T10:18:55.440Z,99.99
2017-01-22T10:19:55.460Z,99.99
2017-01-22T10:20:55.450Z,99.99
2017-01-22T10:21:55.487Z,99.99
2017-01-22T10:22:55.464Z,99.99
2017-01-22T10:23:55.473Z,99.99
2017-01-22T10:24:55.459Z,99.99
2017-01-22T10:25:55.526Z,99.99
2017-01-22T10:26:55.453Z,99.99
2017-01-22T10:27:55.458Z,99.99
2017-01-22T10:28:55.481Z,99.99
2017-01-22T10:29:55.480Z,99.99
2017-01-22T10:30:55.457Z,99.99
2017-01-22T10:31:55.469Z,99.99
2017-01-22T10:32:55.454Z,99.99
2017-01-22T10:33:55.474Z,99.99
2017-01-22T10:34:55.465Z,99.99
2017-01-22T10:35:55.468Z,99.99
2017-01-22T10:36:55.468Z,99.99
2017-01-22T10:37:55.458Z,99.99
2017-01-22T10:38:55.490Z,99.99
2017-01-22T10:39:55.468Z,99.99
2017-01-22T10:40:55.500Z,99.99
2017-01-22T10:41:55.476Z,99.99
2017-01-22T10:42:55.474Z,99.99
2017-01-22T10:43:55.507Z,99.99
2017-01-22T10:44:55.455Z,99.99
2017-01-22T10:45:55.473Z,99.99
2017-01-22T10:46:55.489Z,99.99
2017-01-22T10:47:55.475Z,99.99
2017-01-22T10:48:55.467Z,99.99
2017-01-22T10:49:55.474Z,99.99
2017-01-22T10:50:55.474Z,99.99
2017-01-22T10:51:55.476Z,99.99
2017-01-22T10:52:55.480Z,99.99
2017-01-22T10:53:55.484Z,99.99
2017-01-22T10:54:55.482Z,99.99
2017-01-22T10:55:55.495Z,99.99
2017-01-22T10:56:55.482Z,99.99
2017-01-22T10:57:55.482Z,99.99
2017-01-22T10:58:55.483Z,99.99
2017-01-22T10:59:55.487Z,99.99
2017-01-22T11:00:55.476Z,99.99
2017-01-22T11:01:55.486Z,99.99
2017-01-22T11:02:55.497Z,99.99
2017-01-22T11:03:55.476Z,99.99
2017-01-22T11:04:55.497Z,99.99
2017-01-22T11:05:55.488Z,99.99
2017-01-22T11:06:55.485Z,99.99
2017-01-22T11:07:55.493Z,99.99
2017-01-22T11:08:55.505Z,99.99
2017-01-22T11:09:55.481Z,99.99
2017-01-22T11:10:55.490Z,99.99
2017-01-22T11:11:55.502Z,99.99
2017-01-22T11:12:55.500Z,99.99
2017-01-22T11:13:55.510Z,99.99
2017-01-22T11:14:55.515Z,99.99
2017-01-22T11:15:55.479Z,99.99
2017-01-22T11:16:55.515Z,99.99
2017-01-22T11:17:55.494Z,99.99
2017-01-22T11:18:55.509Z,99.99
2017-01-22T11:19:55.520Z,99.99
2017-01-22T11:20:55.497Z,99.99
2017-01-22T11:21:55.505Z,99.99
2017-01-22T11:22:55.501Z,99.99
2017-01-22T11:23:55.516Z,99.99
2017-01-22T11:24:55.506Z,99.99
2017-01-22T11:25:55.537Z,99.99
2017-01-22T11:26:55.503Z,99.99
2017-01-22T11:27:55.501Z,99.99
2017-01-22T11:28:55.511Z,99.99
2017-01-22T11:29:55.520Z,99.99
2017-01-22T11:30:55.518Z,99.99
2017-01-22T11:31:55.545Z,99.99
2017-01-22T11:32:55.539Z,99.99
2017-01-22T11:33:55.495Z,99.99
2017-01-22T11:34:55.516Z,99.99
2017-01-22T11:35:55.500Z,99.99
2017-01-22T11:36:55.513Z,99.99
2017-01-22T11:37:55.514Z,99.99
2017-01-22T11:38:55.513Z,99.99
2017-01-22T11:39:55.510Z,99.99
2017-01-22T11:40:55.522Z,99.99
2017-01-22T11:41:55.499Z,99.99
2017-01-22T11:42:55.514Z,99.99
2017-01-22T11:43:55.512Z,99.99
2017-01-22T11:44:55.532Z,99.99
2017-01-22T11:45:55.524Z,99.99
2017-01-22T11:46:55.531Z,99.99
2017-01-22T11:47:55.868Z,99.99
2017-01-22T11:48:55.513Z,99.99
2017-01-22T11:49:55.502Z,99.99
2017-01-22T11:50:55.511Z,99.99
2017-01-22T11:51:55.518Z,99.99
2017-01-22T11:52:55.543Z,99.99
2017-01-22T11:53:55.513Z,99.99
2017-01-22T11:54:55.556Z,99.99
2017-01-22T11:55:55.516Z,99.99
2017-01-22T11:56:55.523Z,99.99
2017-01-22T11:57:55.524Z,99.99
2017-01-22T11:58:55.508Z,99.99
2017-01-22T11:59:55.518Z,99.99
2017-01-22T12:00:55.538Z,99.99
2017-01-22T12:01:55.535Z,99.99
2017-01-22T12:02:55.529Z,99.99
2017-01-22T12:03:55.536Z,99.99
2017-01-22T12:04:55.526Z,99.99
2017-01-22T12:05:55.526Z,99.99
2017-01-22T12:06:55.558Z,99.99
2017-01-22T12:07:55.530Z,99.99
2017-01-22T12:08:55.564Z,99.99
2017-01-22T12:09:55.558Z,99.99
2017-01-22T12:10:55.541Z,99.99
2017-01-22T12:11:55.527Z,99.99
2017-01-22T12:12:55.570Z,99.99
2017-01-22T12:13:55.538Z,99.99
2017-01-22T12:14:55.538Z,99.99
2017-01-22T12:15:55.540Z,99.99
2017-01-22T12:16:55.560Z,99.99
2017-01-22T12:17:55.527Z,99.99
2017-01-22T12:18:55.544Z,99.99
2017-01-22T12:19:55.552Z,99.99
2017-01-22T12:20:55.538Z,99.99
2017-01-22T12:21:55.532Z,99.99
2017-01-22T12:22:55.565Z,99.05
2017-01-22T12:23:55.538Z,97.16
2017-01-22T12:24:55.563Z,96.4
2017-01-22T12:25:55.555Z,94.42
2017-01-22T12:26:55.563Z,93.46
2017-01-22T12:27:55.555Z,93.75
2017-01-22T12:28:55.554Z,93.18
2017-01-22T12:29:55.553Z,92.9
2017-01-22T12:30:55.528Z,92.52
2017-01-22T12:31:55.539Z,91.95
2017-01-22T12:32:55.549Z,91.95
2017-01-22T12:33:55.548Z,91.38
2017-01-22T12:34:55.539Z,91.86
2017-01-22T12:35:55.563Z,92.43
2017-01-22T12:36:55.553Z,92.61
2017-01-22T12:37:55.555Z,92.76
2017-01-22T12:38:55.558Z,91.67
2017-01-22T12:39:55.550Z,91.19
2017-01-22T12:40:55.560Z,91.76
2017-01-22T12:41:55.566Z,91.24
2017-01-22T12:42:55.557Z,90.81
2017-01-22T12:43:55.567Z,91.29
2017-01-22T12:44:55.565Z,91.52
2017-01-22T12:45:55.571Z,92.19
2017-01-22T12:46:55.558Z,92.38
2017-01-22T12:47:55.571Z,91.62
2017-01-22T12:48:55.551Z,91.14
2017-01-22T12:49:55.567Z,91.71
2017-01-22T12:50:55.557Z,91.81
2017-01-22T12:51:55.569Z,91.81
2017-01-22T12:52:55.554Z,92.66